Flight Track Log - Related Links

Times and Time Zones

All times are in EDT time to prevent confusion due to time zone crossing. See the AKX1729 flight status page for this flight to view local times or setup timezone preferences in your user account.

Time Position Orientation Groundspeed Altitude Reporting Facility
EDT Latitude Longitude Course Direction KTS MPH feet Rate Location/Type
Thu 05:18:00 AM 26.0350 127.3723 237° Southwest  Level Estimated
Thu 05:19:00 AM 25.9813 127.2813 237° Southwest  Level Estimated
Thu 05:20:00 AM 25.9275 127.1903 237° Southwest  Level Estimated
Thu 05:21:00 AM 25.8737 127.0995 237° Southwest  Level Estimated
Thu 05:22:00 AM 25.8198 127.0087 237° Southwest  Level Estimated
Thu 05:23:00 AM 25.7659 126.9180 237° Southwest  Level Estimated
Thu 05:24:00 AM 25.7119 126.8274 237° Southwest  Level Estimated
Thu 05:25:00 AM 25.6578 126.7368 236° Southwest  Level Estimated
Thu 05:26:00 AM 25.6037 126.6464 236° Southwest  Level Estimated
Thu 05:27:00 AM 25.5495 126.5560 236° Southwest  Level Estimated
Thu 05:28:00 AM 25.4953 126.4658 236° Southwest  Level Estimated
Thu 05:29:00 AM 25.4410 126.3755 236° Southwest  Level Estimated
Thu 05:30:00 AM 25.3867 126.2854 236° Southwest  Level Estimated
Thu 05:31:00 AM 25.3323 126.1954 236° Southwest  Level Estimated
Thu 05:32:00 AM 25.2779 126.1054 236° Southwest  Level Estimated
Thu 05:33:00 AM 25.2234 126.0155 236° Southwest  Level Estimated
Thu 05:34:00 AM 25.1688 125.9258 236° Southwest  Level Estimated
Thu 05:35:00 AM 25.1142 125.8360 236° Southwest  Level Estimated
Thu 05:36:00 AM 25.0596 125.7464 236° Southwest  Level Estimated
Thu 05:37:00 AM 25.0049 125.6568 236° Southwest  Level Estimated
Thu 05:38:00 AM 24.9501 125.5674 236° Southwest  Level Estimated
Thu 05:39:00 AM 24.8953 125.4780 236° Southwest  Level Estimated
Thu 05:40:00 AM 24.8404 125.3886 236° Southwest  Level Estimated
Thu 05:41:00 AM 24.7855 125.2994 236° Southwest  Level Estimated
Thu 05:42:00 AM 24.7828 125.2951 236° Southwest  Level Estimated
Thu 05:43:00 AM 24.7828 125.2951 17° North  Level Estimated
Thu 05:44:00 AM 24.7828 125.2951 17° North  Level Estimated
Thu 05:45:00 AM 24.7828 125.2951 17° North  Level Estimated
Thu 05:46:00 AM 24.7828 125.2951 17° North  Level Estimated
Thu 05:47:00 AM 24.7828 125.2951 17° North  Level Estimated
Thu 05:48:00 AM 24.7828 125.2951 17° North  Level Estimated
Thu 05:49:00 AM 24.7828 125.2951 17° North  Level Estimated
Thu 05:50:00 AM 24.7828 125.2951 17° North  Level Estimated
Thu 05:51:00 AM 24.7828 125.2951 17° North  Level Estimated
Thu 05:52:00 AM 24.7828 125.2951 17° North  Level Estimated

Login

Don't have an account? Register now (free) for customized features, flight alerts, and more!